This is the latest recevied weather packets stored in our database for station/object EB1GOD-1. If no packets are shown the sender has not sent any weather packets the latest 1 day(s).
| Time | Temp. | Humidity | Pressure | Rain* | Wind** | Luminosity | Snow |
|---|---|---|---|---|---|---|---|
| 1778097871 | 16.11° C | 65% | 1152 hPa | - | - | - | - |
| 1778096971 | 16.67° C | 64% | 1152.2 hPa | - | - | - | - |
| 1778093357 | 17.22° C | 61% | 1152 hPa | - | - | - | - |
| 1778089755 | 17.78° C | 58% | 1151.9 hPa | - | - | - | - |
| 1778087955 | 16.67° C | 61% | 1152 hPa | - | - | - | - |
| 1778087055 | 17.78° C | 57% | 1152 hPa | - | - | - | - |
| 1778082554 | 19.44° C | 54% | 1152.1 hPa | - | - | - | - |
| 1778079855 | 18.89° C | 55% | 1152.4 hPa | - | - | - | - |
| 1778078054 | 20° C | 50% | 1152.4 hPa | - | - | - | - |
| 1778070853 | 16.11° C | 62% | 1153 hPa | - | - | - | - |
| 1778069053 | 16.67° C | 63% | 1153.3 hPa | - | - | - | - |
| 1778068153 | 15° C | 68% | 1153.4 hPa | - | - | - | - |
| 1778067253 | 14.44° C | 71% | 1153.6 hPa | - | - | - | - |
| 1778060052 | 13.33° C | 74% | 1153.7 hPa | - | - | - | - |
| 1778059152 | 12.78° C | 76% | 1153.7 hPa | - | - | - | - |
| 1778058252 | 12.78° C | 69% | 1153.6 hPa | - | - | - | - |
| 1778057352 | 12.78° C | 76% | 1153.6 hPa | - | - | - | - |
| 1778056452 | 11.11° C | 84% | 1153.8 hPa | - | - | - | - |
| 1778055552 | 11.11° C | 88% | 1153.8 hPa | - | - | - | - |
| 1778051951 | 10° C | 90% | 1153.9 hPa | - | - | - | - |
| 1778051051 | 10° C | 89% | 1153.8 hPa | - | - | - | - |
| 1778050151 | 9.44° C | 88% | 1153.8 hPa | - | - | - | - |
| 1778049251 | 10° C | 86% | 1153.9 hPa | - | - | - | - |
| 1778048351 | 9.44° C | 87% | 1153.9 hPa | - | - | - | - |
| 1778047451 | 10° C | 86% | 1153.8 hPa | - | - | - | - |
* Rain since midnight (hover to see other rain measurements)
** Current wind speed in m/s (hover to see current wind gust speed)